Time;durP1;ratioP1;P1;durP2;ratioP2;P2;SDS_P1;SDS_P2;PMS_P1;PMS_P2;Temp;Humidity;BMP_temperature;BMP_pressure;BME280_temperature;BME280_humidity;BME280_pressure;Samples;Min_cycle;Max_cycle;Signal;HPM_P1;HPM_P2
2021/09/29 00:01:39;;;;;;;15.43;12.80;;;12.30;99.90;;;;;;4988354;28;20201;-79
2021/09/29 00:04:07;;;;;;;15.90;11.77;;;12.20;99.90;;;;;;4992742;28;20236;-79
2021/09/29 00:06:34;;;;;;;18.45;11.10;;;12.10;99.90;;;;;;5004448;28;20270;-78
2021/09/29 00:09:02;;;;;;;16.50;11.30;;;12.10;99.90;;;;;;5004860;28;20255;-79
2021/09/29 00:11:30;;;;;;;17.13;11.98;;;12.00;99.90;;;;;;5002594;28;20216;-77
2021/09/29 00:13:57;;;;;;;17.08;11.25;;;12.00;99.90;;;;;;5003629;28;20217;-78
2021/09/29 00:16:25;;;;;;;13.65;11.73;;;12.00;99.90;;;;;;5004312;28;20235;-79
2021/09/29 00:18:52;;;;;;;18.10;12.32;;;12.00;99.90;;;;;;5005618;28;20204;-78
2021/09/29 00:21:20;;;;;;;13.63;12.32;;;12.00;99.90;;;;;;5000849;28;20208;-78
2021/09/29 00:23:48;;;;;;;13.90;12.52;;;12.00;99.90;;;;;;5004540;28;20429;-79
2021/09/29 00:26:15;;;;;;;18.08;13.18;;;11.90;99.90;;;;;;5004788;28;20259;-77
2021/09/29 00:28:42;;;;;;;20.25;12.00;;;11.90;99.90;;;;;;4975224;28;20206;-77
2021/09/29 00:31:25;;;;;;;12.90;10.55;;;11.90;99.90;;;;;;5005176;28;20205;-78
2021/09/29 00:34:08;;;;;;;15.13;12.38;;;11.80;99.90;;;;;;5004059;28;20421;-79
2021/09/29 00:36:39;;;;;;;15.50;13.90;;;11.70;99.90;;;;;;5004653;28;20224;-77
2021/09/29 00:39:07;;;;;;;12.75;11.23;;;11.60;99.90;;;;;;5006061;28;20351;-78
2021/09/29 00:41:35;;;;;;;19.70;11.85;;;11.50;99.90;;;;;;5004882;28;20244;-77
2021/09/29 00:44:04;;;;;;;14.32;11.82;;;11.60;99.90;;;;;;5002952;28;20220;-78
2021/09/29 00:46:32;;;;;;;14.40;12.23;;;11.60;99.90;;;;;;4988951;28;20219;-77
2021/09/29 00:48:59;;;;;;;15.80;13.73;;;11.50;99.90;;;;;;5004358;28;20200;-79
2021/09/29 00:51:27;;;;;;;16.42;12.25;;;11.50;99.90;;;;;;4988626;28;20205;-77
2021/09/29 00:53:55;;;;;;;25.45;13.35;;;11.50;99.90;;;;;;4987297;28;20210;-79
2021/09/29 00:56:23;;;;;;;15.95;13.68;;;11.50;99.90;;;;;;5005519;28;20219;-78
2021/09/29 00:58:50;;;;;;;16.50;14.75;;;11.40;99.90;;;;;;5004128;28;20204;-80
2021/09/29 01:01:17;;;;;;;18.05;13.18;;;11.30;99.90;;;;;;5003418;28;20248;-77
2021/09/29 01:03:47;;;;;;;18.08;14.13;;;11.30;99.90;;;;;;5003023;28;20536;-78
2021/09/29 01:06:47;;;;;;;15.20;12.98;;;11.40;99.90;;;;;;5004077;28;20385;-80
2021/09/29 01:09:34;;;;;;;19.17;13.80;;;11.30;99.90;;;;;;5003727;28;20212;-77
2021/09/29 01:12:12;;;;;;;14.85;13.38;;;11.30;99.90;;;;;;4986818;28;20501;-79
2021/09/29 01:14:45;;;;;;;16.58;12.80;;;11.30;99.90;;;;;;5003511;28;20204;-78
2021/09/29 01:17:17;;;;;;;15.57;12.60;;;11.30;99.90;;;;;;5002897;28;20227;-78
2021/09/29 01:20:02;;;;;;;17.00;13.90;;;11.20;99.90;;;;;;5002358;28;20204;-78
2021/09/29 01:22:39;;;;;;;14.70;11.52;;;11.20;99.90;;;;;;4996980;28;20211;-79
2021/09/29 01:25:15;;;;;;;16.90;13.38;;;11.10;99.90;;;;;;5003628;28;20395;-78
2021/09/29 01:27:46;;;;;;;18.70;13.35;;;11.20;99.90;;;;;;5003262;28;20199;-78
2021/09/29 01:30:13;;;;;;;16.45;14.45;;;11.10;99.90;;;;;;5003756;28;20200;-76
2021/09/29 01:32:41;;;;;;;15.07;13.48;;;11.00;99.90;;;;;;5003597;28;20494;-78
2021/09/29 01:35:10;;;;;;;15.82;14.20;;;11.10;99.90;;;;;;4995963;28;20212;-77
2021/09/29 01:37:38;;;;;;;16.75;12.85;;;11.10;99.90;;;;;;5003086;28;20216;-78
2021/09/29 01:40:08;;;;;;;19.63;15.35;;;10.90;99.90;;;;;;5003640;28;20244;-77
2021/09/29 01:42:35;;;;;;;16.60;14.55;;;10.90;99.90;;;;;;5003403;28;20223;-77
2021/09/29 01:45:02;;;;;;;18.92;15.40;;;11.00;99.90;;;;;;5003392;28;20215;-77
2021/09/29 01:47:29;;;;;;;17.80;15.07;;;10.80;99.90;;;;;;4995950;28;20220;-76
2021/09/29 01:50:01;;;;;;;16.38;14.75;;;10.80;99.90;;;;;;5003472;28;20214;-77
2021/09/29 01:52:30;;;;;;;17.15;14.65;;;10.80;99.90;;;;;;5003318;28;20257;-77
2021/09/29 01:54:59;;;;;;;17.15;15.52;;;10.90;99.90;;;;;;5001340;28;20205;-77
2021/09/29 01:57:26;;;;;;;19.25;14.90;;;10.90;99.90;;;;;;5002358;28;20223;-77
2021/09/29 01:59:54;;;;;;;19.15;16.88;;;10.70;99.90;;;;;;5001716;28;20249;-77
2021/09/29 02:02:21;;;;;;;17.35;15.55;;;10.70;99.90;;;;;;4995112;28;20232;-76
2021/09/29 02:04:51;;;;;;;16.33;14.18;;;10.60;99.90;;;;;;4996348;28;20204;-76
2021/09/29 02:07:18;;;;;;;20.98;15.50;;;10.70;99.90;;;;;;4999254;28;20242;-77
2021/09/29 02:09:47;;;;;;;21.55;15.88;;;10.60;99.90;;;;;;5002258;28;20559;-76
2021/09/29 02:12:14;;;;;;;16.35;14.60;;;10.60;99.90;;;;;;5002458;28;20203;-78
2021/09/29 02:14:42;;;;;;;15.50;13.90;;;10.60;99.90;;;;;;5002098;28;20198;-78
2021/09/29 02:17:09;;;;;;;14.27;12.82;;;10.60;99.90;;;;;;4996889;28;20289;-77
2021/09/29 02:19:36;;;;;;;15.43;13.63;;;10.50;99.90;;;;;;4988649;28;20230;-77
2021/09/29 02:22:04;;;;;;;16.10;13.85;;;10.40;99.90;;;;;;5002336;28;20194;-77
2021/09/29 02:24:32;;;;;;;16.55;13.55;;;10.40;99.90;;;;;;5002117;28;20200;-76
2021/09/29 02:26:59;;;;;;;24.63;15.23;;;10.40;99.90;;;;;;5002196;28;20211;-76
2021/09/29 02:29:26;;;;;;;21.40;15.20;;;10.30;99.90;;;;;;4990685;28;20225;-77
2021/09/29 02:31:53;;;;;;;15.63;13.77;;;10.20;99.90;;;;;;5001650;28;20393;-77
2021/09/29 02:34:20;;;;;;;16.40;14.23;;;10.20;99.90;;;;;;4994499;28;20207;-76
2021/09/29 02:36:48;;;;;;;16.23;14.52;;;10.10;99.90;;;;;;4989874;28;20532;-76
2021/09/29 02:39:15;;;;;;;17.35;15.50;;;10.20;99.90;;;;;;5003569;28;20198;-76
2021/09/29 02:41:42;;;;;;;16.88;14.02;;;10.10;99.90;;;;;;4989835;28;20204;-77
2021/09/29 02:44:11;;;;;;;15.75;13.05;;;10.10;99.90;;;;;;5002016;28;20217;-76
2021/09/29 02:46:40;;;;;;;20.55;13.23;;;10.20;99.90;;;;;;5002233;28;20208;-75
2021/09/29 02:49:09;;;;;;;18.88;14.60;;;10.20;99.90;;;;;;5001086;28;20207;-76
2021/09/29 02:51:37;;;;;;;15.45;11.85;;;10.10;99.90;;;;;;5002155;28;20206;-77
2021/09/29 02:54:05;;;;;;;14.18;12.07;;;10.00;99.90;;;;;;5003839;28;20493;-77
2021/09/29 02:56:33;;;;;;;16.23;12.57;;;10.10;99.90;;;;;;4982254;28;20231;-76
2021/09/29 02:59:01;;;;;;;14.05;12.48;;;10.00;99.90;;;;;;4992279;28;20242;-77
2021/09/29 03:01:28;;;;;;;15.38;12.73;;;9.90;99.90;;;;;;4997596;28;20207;-76
2021/09/29 03:03:55;;;;;;;14.30;12.80;;;9.90;99.90;;;;;;5002588;28;20212;-76
2021/09/29 03:06:23;;;;;;;15.13;13.52;;;9.80;99.90;;;;;;5000797;28;20209;-75
2021/09/29 03:08:50;;;;;;;14.52;12.75;;;9.80;99.90;;;;;;5002099;28;20253;-77
2021/09/29 03:11:18;;;;;;;20.55;14.13;;;9.90;99.90;;;;;;5002372;28;20202;-76
2021/09/29 03:13:47;;;;;;;15.18;13.05;;;9.90;99.90;;;;;;4984119;28;20210;-76
2021/09/29 03:16:15;;;;;;;14.63;12.85;;;9.90;99.90;;;;;;5002139;28;20229;-77
2021/09/29 03:18:43;;;;;;;15.82;12.68;;;9.70;99.90;;;;;;4984477;28;20363;-78
2021/09/29 03:21:11;;;;;;;13.20;11.80;;;9.70;99.90;;;;;;5001851;28;20203;-76
2021/09/29 03:23:38;;;;;;;18.13;13.35;;;9.60;99.90;;;;;;5001886;28;20433;-77
2021/09/29 03:26:06;;;;;;;14.43;12.82;;;9.50;99.90;;;;;;5005957;28;20205;-77
2021/09/29 03:28:33;;;;;;;13.77;12.38;;;9.60;99.90;;;;;;5005447;28;20210;-76
2021/09/29 03:31:00;;;;;;;12.57;11.05;;;9.50;99.90;;;;;;4999463;28;20217;-76
2021/09/29 03:33:27;;;;;;;17.27;11.63;;;9.50;99.90;;;;;;4997479;28;20199;-76
2021/09/29 03:35:55;;;;;;;15.52;12.93;;;9.40;99.90;;;;;;5005850;28;20219;-76
2021/09/29 03:38:22;;;;;;;14.50;11.73;;;9.40;99.90;;;;;;5005732;28;20253;-76
2021/09/29 03:40:50;;;;;;;15.00;13.27;;;9.50;99.90;;;;;;5005467;28;20200;-76
2021/09/29 03:43:19;;;;;;;13.82;12.38;;;9.50;99.90;;;;;;5006115;28;20205;-76
2021/09/29 03:45:47;;;;;;;14.20;12.88;;;9.40;99.90;;;;;;4992646;28;20417;-77
2021/09/29 03:48:14;;;;;;;12.60;10.35;;;9.60;99.90;;;;;;5006172;28;20218;-76
2021/09/29 03:50:41;;;;;;;18.00;12.02;;;9.40;99.90;;;;;;5006277;28;20260;-75
2021/09/29 03:53:09;;;;;;;16.88;11.75;;;9.30;99.90;;;;;;4987806;28;20212;-76
2021/09/29 03:55:36;;;;;;;12.85;11.57;;;9.20;99.90;;;;;;5006412;28;20463;-77
2021/09/29 03:58:03;;;;;;;17.63;12.52;;;9.30;99.90;;;;;;5004936;28;20237;-78
2021/09/29 04:00:30;;;;;;;14.18;10.48;;;9.20;99.90;;;;;;5005074;28;20205;-75
2021/09/29 04:02:58;;;;;;;17.95;12.13;;;9.20;99.90;;;;;;5005741;28;20249;-77
2021/09/29 04:05:25;;;;;;;17.55;13.35;;;9.20;99.90;;;;;;5003916;28;20240;-77
2021/09/29 04:07:53;;;;;;;14.07;10.80;;;9.20;99.90;;;;;;5004811;28;20218;-77
2021/09/29 04:10:21;;;;;;;12.20;9.60;;;9.20;99.90;;;;;;5004568;28;20249;-76
2021/09/29 04:12:49;;;;;;;17.73;12.00;;;9.20;99.90;;;;;;5005277;28;20201;-76
2021/09/29 04:15:16;;;;;;;13.63;12.23;;;9.30;99.90;;;;;;5004051;28;20209;-76
2021/09/29 04:17:45;;;;;;;13.90;12.40;;;9.20;99.90;;;;;;5003089;28;20261;-77
2021/09/29 04:20:12;;;;;;;19.73;12.90;;;9.20;99.90;;;;;;5004583;28;20210;-75
2021/09/29 04:22:40;;;;;;;12.15;10.75;;;9.10;99.90;;;;;;4987581;28;20479;-77
2021/09/29 04:25:08;;;;;;;14.32;12.68;;;9.10;99.90;;;;;;4987093;28;20202;-77
2021/09/29 04:27:35;;;;;;;18.08;10.05;;;9.00;99.90;;;;;;5005316;28;20203;-76
2021/09/29 04:30:04;;;;;;;12.48;11.25;;;9.00;99.90;;;;;;4984682;28;20403;-77
2021/09/29 04:32:31;;;;;;;11.10;10.02;;;9.00;99.90;;;;;;5004514;28;20198;-76
2021/09/29 04:34:58;;;;;;;16.67;10.57;;;9.10;99.90;;;;;;5003380;28;20199;-76
2021/09/29 04:37:26;;;;;;;22.75;12.20;;;8.90;99.90;;;;;;4991006;28;20222;-76
2021/09/29 04:39:53;;;;;;;11.85;10.27;;;9.00;99.90;;;;;;5004050;28;20209;-77
2021/09/29 04:42:21;;;;;;;11.23;9.95;;;9.00;99.90;;;;;;4987696;28;20199;-77
2021/09/29 04:44:48;;;;;;;13.27;11.88;;;8.90;99.90;;;;;;4988091;28;20209;-77
2021/09/29 04:47:15;;;;;;;13.43;11.32;;;8.90;99.90;;;;;;5004367;28;20205;-77
2021/09/29 04:49:43;;;;;;;12.95;10.45;;;8.90;99.90;;;;;;5002803;28;20222;-79
2021/09/29 04:52:10;;;;;;;11.20;10.18;;;9.00;99.90;;;;;;5001682;28;20206;-77
2021/09/29 04:54:41;;;;;;;14.25;12.45;;;9.10;99.90;;;;;;4987160;28;20228;-76
2021/09/29 04:57:09;;;;;;;16.23;11.85;;;9.10;99.90;;;;;;5004025;28;20530;-77
2021/09/29 04:59:37;;;;;;;12.95;11.10;;;9.10;99.90;;;;;;5001857;28;20225;-76
2021/09/29 05:02:04;;;;;;;12.23;10.70;;;9.00;99.90;;;;;;5003623;28;20408;-78
2021/09/29 05:04:31;;;;;;;14.60;12.40;;;9.00;99.90;;;;;;5007840;28;20237;-76
2021/09/29 05:07:00;;;;;;;15.25;11.85;;;9.10;99.90;;;;;;5003645;28;20213;-75
2021/09/29 05:09:27;;;;;;;19.73;11.05;;;9.00;99.90;;;;;;4993871;28;20210;-77
2021/09/29 05:12:12;;;;;;;12.48;11.27;;;9.00;99.90;;;;;;5001057;28;20209;-77
2021/09/29 05:14:39;;;;;;;13.65;10.85;;;9.10;99.90;;;;;;5001730;28;20256;-77
2021/09/29 05:17:07;;;;;;;11.98;10.48;;;9.20;99.90;;;;;;4996647;28;20245;-77
2021/09/29 05:19:34;;;;;;;13.73;10.80;;;9.20;99.90;;;;;;4998375;28;20212;-77
2021/09/29 05:22:02;;;;;;;9.80;8.90;;;9.30;99.90;;;;;;5002252;28;20209;-79
2021/09/29 05:24:29;;;;;;;11.80;10.60;;;9.50;99.90;;;;;;5001949;28;20225;-77
2021/09/29 05:26:57;;;;;;;12.50;9.98;;;9.50;99.90;;;;;;5003140;28;20213;-77
2021/09/29 05:29:25;;;;;;;11.02;9.90;;;9.70;99.90;;;;;;5003389;28;20209;-76
2021/09/29 05:31:52;;;;;;;11.82;9.40;;;9.80;99.90;;;;;;4999377;28;20503;-77
2021/09/29 05:34:20;;;;;;;10.93;9.52;;;9.90;99.90;;;;;;4979138;28;20265;-77
2021/09/29 05:36:48;;;;;;;10.77;8.80;;;10.00;99.90;;;;;;4995555;28;20241;-77
2021/09/29 05:39:15;;;;;;;10.13;9.00;;;9.90;99.90;;;;;;4998346;28;20337;-78
2021/09/29 05:41:43;;;;;;;13.27;9.32;;;9.90;99.90;;;;;;4987657;28;20207;-76
2021/09/29 05:44:10;;;;;;;13.15;9.98;;;10.10;99.90;;;;;;5002064;28;20213;-77
2021/09/29 05:46:38;;;;;;;10.40;9.23;;;10.30;99.90;;;;;;4999025;28;20208;-75
2021/09/29 05:49:05;;;;;;;10.75;9.05;;;10.40;99.90;;;;;;4997996;28;20208;-76
2021/09/29 05:51:32;;;;;;;14.90;9.27;;;10.40;99.90;;;;;;5002995;28;20273;-76
2021/09/29 05:54:00;;;;;;;11.32;9.05;;;10.50;99.90;;;;;;5001799;28;20495;-78
2021/09/29 05:56:28;;;;;;;14.88;10.48;;;10.60;99.90;;;;;;4993106;28;20278;-76
2021/09/29 05:58:55;;;;;;;13.00;11.38;;;10.50;99.90;;;;;;5002844;28;20227;-76
2021/09/29 06:01:22;;;;;;;10.65;9.60;;;10.60;99.90;;;;;;5002147;28;20200;-79
2021/09/29 06:03:50;;;;;;;9.27;7.93;;;10.60;99.90;;;;;;5002276;28;20204;-78
2021/09/29 06:06:18;;;;;;;9.45;8.43;;;10.80;99.90;;;;;;4984044;28;20196;-76
2021/09/29 06:08:45;;;;;;;12.32;9.25;;;11.00;99.90;;;;;;4988832;28;20214;-75
2021/09/29 06:11:14;;;;;;;13.15;7.95;;;11.40;99.90;;;;;;4988594;28;20520;-76
2021/09/29 06:13:41;;;;;;;9.82;8.27;;;11.80;99.90;;;;;;5002273;28;20429;-77
2021/09/29 06:16:10;;;;;;;10.02;9.02;;;12.10;99.90;;;;;;5004044;28;20211;-76
2021/09/29 06:18:39;;;;;;;8.27;7.53;;;12.20;99.90;;;;;;5003432;28;20228;-75
2021/09/29 06:21:07;;;;;;;12.18;9.07;;;12.50;99.90;;;;;;5002222;28;20205;-78
2021/09/29 06:23:35;;;;;;;12.00;8.30;;;12.40;99.90;;;;;;5000851;28;20207;-77
2021/09/29 06:26:03;;;;;;;8.50;7.55;;;12.40;99.90;;;;;;4993347;28;20212;-76
2021/09/29 06:28:34;;;;;;;9.68;6.95;;;12.20;99.90;;;;;;5001193;28;20251;-77
2021/09/29 06:31:01;;;;;;;9.80;8.80;;;11.90;99.90;;;;;;5000105;28;20200;-77
2021/09/29 06:33:29;;;;;;;9.40;8.32;;;12.10;99.90;;;;;;5002057;28;20208;-76
2021/09/29 06:35:57;;;;;;;7.80;7.00;;;12.30;99.90;;;;;;5000548;28;20557;-77
2021/09/29 06:38:24;;;;;;;9.32;7.57;;;12.70;99.90;;;;;;5002210;28;20232;-76
2021/09/29 06:40:56;;;;;;;6.97;6.38;;;13.00;99.90;;;;;;5001925;28;20194;-77
2021/09/29 06:43:24;;;;;;;6.30;5.68;;;13.00;99.90;;;;;;5001428;28;20198;-76
2021/09/29 06:45:51;;;;;;;9.25;7.22;;;12.90;99.90;;;;;;5000942;28;20221;-77
2021/09/29 06:48:19;;;;;;;14.57;8.05;;;13.10;99.90;;;;;;5001338;28;20349;-78
2021/09/29 06:50:46;;;;;;;7.50;6.80;;;13.30;99.90;;;;;;5001952;28;20252;-76
2021/09/29 06:53:21;;;;;;;14.10;7.70;;;13.60;99.90;;;;;;5002279;28;20224;-75
2021/09/29 06:55:50;;;;;;;7.90;6.20;;;14.50;99.90;;;;;;5000857;28;20205;-77
2021/09/29 06:58:18;;;;;;;9.95;7.32;;;14.30;99.90;;;;;;4996920;28;20233;-76
2021/09/29 07:00:45;;;;;;;6.88;6.15;;;13.80;99.90;;;;;;5005091;28;20201;-76
2021/09/29 07:03:14;;;;;;;7.45;6.38;;;13.80;99.90;;;;;;5003975;28;20202;-76
2021/09/29 07:05:41;;;;;;;8.15;6.70;;;14.10;99.90;;;;;;4993780;28;20232;-76
2021/09/29 07:08:08;;;;;;;7.97;7.20;;;14.00;99.90;;;;;;5005551;28;20518;-76
2021/09/29 07:10:35;;;;;;;9.23;7.25;;;14.10;99.90;;;;;;5005693;28;20193;-79
2021/09/29 07:13:03;;;;;;;7.57;6.95;;;14.20;99.90;;;;;;5005613;28;20205;-75
2021/09/29 07:15:30;;;;;;;7.07;6.35;;;14.20;99.90;;;;;;5004223;28;20419;-76
2021/09/29 07:17:59;;;;;;;9.32;7.35;;;14.20;99.90;;;;;;4996378;28;20221;-75
2021/09/29 07:20:27;;;;;;;8.00;7.18;;;14.10;99.90;;;;;;5005031;28;20501;-77
2021/09/29 07:22:57;;;;;;;9.32;7.25;;;14.40;99.90;;;;;;5005144;28;20310;-76
2021/09/29 07:25:28;;;;;;;7.57;6.85;;;14.60;99.90;;;;;;5004954;28;20261;-78
2021/09/29 07:27:57;;;;;;;10.68;6.60;;;14.60;99.90;;;;;;4987677;28;20475;-76
2021/09/29 07:30:26;;;;;;;8.18;7.03;;;14.70;99.90;;;;;;5004816;28;20211;-77
2021/09/29 07:32:55;;;;;;;8.52;7.20;;;14.60;99.90;;;;;;5005433;28;20285;-75
2021/09/29 07:35:22;;;;;;;8.60;7.68;;;14.70;99.90;;;;;;5004691;28;20205;-76
2021/09/29 07:37:50;;;;;;;11.95;8.10;;;14.70;99.90;;;;;;5001049;28;20245;-77
2021/09/29 07:40:18;;;;;;;8.93;7.45;;;14.90;99.90;;;;;;5005134;28;20201;-77
2021/09/29 07:42:45;;;;;;;8.32;7.40;;;14.50;99.90;;;;;;5004550;28;20245;-76
2021/09/29 07:45:13;;;;;;;12.70;8.48;;;14.40;99.90;;;;;;5002192;28;20210;-76
2021/09/29 07:47:40;;;;;;;7.43;6.55;;;14.40;99.90;;;;;;5002119;28;20248;-75
2021/09/29 07:50:09;;;;;;;7.75;7.10;;;14.90;99.90;;;;;;5004955;28;20562;-76
2021/09/29 07:52:36;;;;;;;8.35;7.57;;;15.40;99.90;;;;;;4996448;28;20202;-74
2021/09/29 07:55:03;;;;;;;8.43;7.13;;;15.60;99.90;;;;;;5004146;28;20282;-77
2021/09/29 07:57:42;;;;;;;8.43;6.87;;;16.10;99.90;;;;;;5004487;28;20458;-74
2021/09/29 08:00:11;;;;;;;9.80;7.70;;;16.90;99.90;;;;;;4986093;28;20432;-77
2021/09/29 08:02:40;;;;;;;7.43;6.73;;;17.10;99.90;;;;;;4994803;28;20416;-76
2021/09/29 08:05:08;;;;;;;8.27;7.57;;;17.10;99.90;;;;;;4985372;28;20452;-76
2021/09/29 08:07:38;;;;;;;11.43;6.90;;;17.20;99.90;;;;;;5001334;28;20736;-77
2021/09/29 08:10:07;;;;;;;10.57;8.83;;;17.60;99.90;;;;;;4997536;28;20441;-77
2021/09/29 08:12:34;;;;;;;8.13;7.03;;;17.60;99.90;;;;;;5004183;28;20482;-76
2021/09/29 08:15:02;;;;;;;8.40;7.27;;;17.20;99.90;;;;;;4987405;28;20646;-76
2021/09/29 08:17:29;;;;;;;8.30;7.40;;;16.80;99.90;;;;;;5004535;28;20500;-77
2021/09/29 08:19:57;;;;;;;8.47;7.57;;;17.10;99.90;;;;;;5004546;28;20441;-76
2021/09/29 08:22:24;;;;;;;10.80;7.97;;;17.00;99.90;;;;;;5005150;28;20431;-77
2021/09/29 08:25:02;;;;;;;9.63;8.60;;;17.00;99.90;;;;;;4988951;28;20427;-79
2021/09/29 08:30:14;;;;;;;8.43;7.63;;;17.80;99.90;;;;;;5005061;28;20417;-77
2021/09/29 08:32:57;;;;;;;8.70;7.83;;;17.90;99.90;;;;;;5005256;28;20440;-77
2021/09/29 08:46:08;;;;;;;8.73;7.93;;;17.90;99.90;;;;;;5002237;28;20510;-77
2021/09/29 08:56:57;;;;;;;14.20;9.20;;;17.90;99.90;;;;;;4998101;28;20418;-76
2021/09/29 09:16:32;;;;;;;9.23;7.90;;;18.00;99.90;;;;;;5000847;28;20441;-75
2021/09/29 09:19:04;;;;;;;9.23;8.00;;;17.50;99.90;;;;;;5000581;28;20486;-76
2021/09/29 09:21:32;;;;;;;9.20;7.60;;;17.30;99.90;;;;;;5002709;28;20412;-77
2021/09/29 09:24:19;;;;;;;10.43;9.00;;;16.70;99.90;;;;;;5002287;28;20411;-76
2021/09/29 09:27:19;;;;;;;9.67;7.00;;;16.40;99.90;;;;;;5002202;28;20437;-77
2021/09/29 09:29:52;;;;;;;8.10;7.40;;;16.40;99.90;;;;;;4971781;28;20450;-80
2021/09/29 09:32:25;;;;;;;9.60;8.67;;;16.60;99.90;;;;;;5003322;28;20584;-77
2021/09/29 09:35:04;;;;;;;10.03;9.00;;;16.70;99.90;;;;;;5002951;28;20598;-78
2021/09/29 09:37:32;;;;;;;8.80;7.90;;;16.50;99.90;;;;;;4980928;28;20658;-78
2021/09/29 09:40:16;;;;;;;10.03;9.03;;;16.80;99.90;;;;;;5002817;28;20678;-77
2021/09/29 09:42:47;;;;;;;8.93;8.10;;;16.90;99.90;;;;;;5003228;28;20737;-77
2021/09/29 09:45:14;;;;;;;9.07;8.10;;;16.60;99.90;;;;;;4985246;28;20622;-76
2021/09/29 09:47:46;;;;;;;8.90;7.87;;;16.30;99.90;;;;;;5002798;28;20460;-78
2021/09/29 09:50:28;;;;;;;10.57;8.43;;;16.20;99.90;;;;;;4995692;28;20741;-77
2021/09/29 09:52:56;;;;;;;9.90;8.37;;;16.50;99.90;;;;;;5002968;28;20644;-77
2021/09/29 09:55:25;;;;;;;9.33;8.47;;;16.60;99.90;;;;;;4993887;28;20653;-78
2021/09/29 09:57:55;;;;;;;17.70;9.60;;;16.90;99.90;;;;;;4998156;28;20451;-78
2021/09/29 10:00:27;;;;;;;9.47;8.67;;;16.70;99.90;;;;;;5002507;28;20425;-77
2021/09/29 10:02:55;;;;;;;10.87;9.23;;;16.60;99.90;;;;;;5002920;28;21011;-77
2021/09/29 10:05:27;;;;;;;8.77;8.00;;;16.70;99.90;;;;;;5002665;28;20416;-76
2021/09/29 10:07:55;;;;;;;13.30;9.77;;;17.00;99.90;;;;;;4998513;28;20490;-76
2021/09/29 10:27:21;;;;;;;12.20;9.23;;;16.70;99.90;;;;;;5002130;28;20603;-79
2021/09/29 10:29:57;;;;;;;10.63;9.57;;;16.70;99.90;;;;;;4980499;28;20756;-79
2021/09/29 10:35:24;;;;;;;11.40;10.17;;;17.00;99.90;;;;;;5004746;28;20732;-78
2021/09/29 10:44:15;;;;;;;11.37;10.30;;;16.70;99.90;;;;;;5006344;28;20642;-76
2021/09/29 10:46:33;;;;;;;12.70;9.53;;;16.90;99.90;;;;;;5000955;28;20452;-77
2021/09/29 11:29:52;;;;;;;15.10;11.87;;;16.30;99.90;;;;;;5005319;28;20507;-76
2021/09/29 11:32:31;;;;;;;17.20;12.97;;;16.30;99.90;;;;;;4997713;28;20429;-75
2021/09/29 11:35:03;;;;;;;14.10;11.97;;;16.30;99.90;;;;;;5005328;28;20441;-80
2021/09/29 12:10:29;;;;;;;18.27;14.60;;;16.10;99.90;;;;;;5004520;28;20211;-76
2021/09/29 12:13:00;;;;;;;14.40;12.43;;;16.20;99.90;;;;;;5004245;28;20206;-77
2021/09/29 12:15:27;;;;;;;20.73;13.95;;;16.20;99.90;;;;;;5004967;28;20772;-76
2021/09/29 12:17:55;;;;;;;18.27;14.60;;;16.30;99.90;;;;;;5004795;28;20217;-75
2021/09/29 12:22:54;;;;;;;20.42;15.88;;;16.50;99.90;;;;;;5004568;28;20246;-75
2021/09/29 12:25:53;;;;;;;17.13;14.82;;;16.40;99.90;;;;;;5004506;28;20201;-77
2021/09/29 12:36:30;;;;;;;18.95;16.00;;;16.50;99.90;;;;;;5004026;28;20226;-76
2021/09/29 12:38:59;;;;;;;19.37;16.27;;;16.60;99.90;;;;;;4986831;28;20427;-78
2021/09/29 12:41:30;;;;;;;21.67;16.43;;;16.80;99.90;;;;;;4992412;28;20408;-80
2021/09/29 12:44:13;;;;;;;16.83;15.23;;;16.80;99.90;;;;;;5004094;28;20669;-76
2021/09/29 12:46:44;;;;;;;22.23;17.80;;;17.00;99.90;;;;;;5005003;28;20459;-77
2021/09/29 12:49:17;;;;;;;20.67;17.60;;;17.30;99.90;;;;;;4998621;28;20444;-78
2021/09/29 12:51:53;;;;;;;22.20;17.67;;;17.20;99.90;;;;;;4989404;28;20450;-76
2021/09/29 12:54:23;;;;;;;19.77;17.20;;;17.20;99.90;;;;;;5001109;28;20428;-77
2021/09/29 12:56:50;;;;;;;22.27;17.10;;;17.20;99.90;;;;;;5003351;28;20487;-76
2021/09/29 12:59:18;;;;;;;21.17;18.17;;;17.10;99.90;;;;;;5004500;28;20513;-76
2021/09/29 13:01:45;;;;;;;26.00;18.73;;;17.20;99.90;;;;;;5000840;28;20434;-76
2021/09/29 13:04:12;;;;;;;23.20;18.60;;;17.10;99.90;;;;;;4994928;28;20702;-77
2021/09/29 13:06:41;;;;;;;17.27;15.53;;;17.00;99.90;;;;;;5001616;28;20768;-78
2021/09/29 13:09:09;;;;;;;20.17;17.00;;;16.90;99.90;;;;;;5003855;28;20644;-78
2021/09/29 13:11:36;;;;;;;21.50;18.80;;;17.10;99.90;;;;;;5003557;28;20436;-79
2021/09/29 13:14:04;;;;;;;20.27;17.93;;;17.00;99.90;;;;;;5003227;28;20426;-76
2021/09/29 13:16:32;;;;;;;20.83;18.80;;;16.90;99.90;;;;;;4988431;28;20419;-76
2021/09/29 13:19:03;;;;;;;20.67;17.40;;;16.70;99.90;;;;;;5002916;28;20530;-76
2021/09/29 13:21:37;;;;;;;19.90;16.40;;;16.50;99.90;;;;;;4983899;28;20581;-75
2021/09/29 13:24:16;;;;;;;19.50;17.50;;;16.40;99.90;;;;;;4981707;28;20457;-77
2021/09/29 13:37:41;;;;;;;25.07;19.07;;;16.30;99.90;;;;;;4988632;28;20787;-75
2021/09/29 13:40:09;;;;;;;22.23;18.70;;;16.20;99.90;;;;;;4993421;28;20452;-78
2021/09/29 13:42:36;;;;;;;25.52;18.83;;;16.20;99.90;;;;;;4994735;28;20600;-76
2021/09/29 13:45:06;;;;;;;21.93;18.23;;;16.20;99.90;;;;;;4995352;28;20210;-78
2021/09/29 13:47:33;;;;;;;22.08;18.70;;;16.20;99.90;;;;;;4991568;28;20445;-77
2021/09/29 13:50:01;;;;;;;24.77;17.63;;;16.40;99.90;;;;;;5002933;28;20210;-76
2021/09/29 13:52:28;;;;;;;21.07;18.77;;;16.60;99.90;;;;;;5001107;28;20416;-80
2021/09/29 13:55:03;;;;;;;20.27;18.20;;;16.60;99.90;;;;;;4985016;28;20438;-76
2021/09/29 13:57:42;;;;;;;21.00;17.83;;;16.50;99.90;;;;;;4997228;28;20398;-78
2021/09/29 14:00:22;;;;;;;20.37;18.17;;;16.80;99.90;;;;;;4997169;28;20505;-76
2021/09/29 14:03:18;;;;;;;20.20;17.90;;;17.10;99.90;;;;;;5000128;28;20463;-76
2021/09/29 14:14:45;;;;;;;24.37;20.40;;;16.90;99.90;;;;;;4996701;28;20751;-78
2021/09/29 14:30:55;;;;;;;29.30;23.20;;;16.50;99.90;;;;;;5001674;28;20472;-77
2021/09/29 14:33:28;;;;;;;32.93;24.83;;;16.10;99.90;;;;;;5001004;28;20418;-80
2021/09/29 14:35:55;;;;;;;29.87;22.00;;;16.00;99.90;;;;;;4998160;28;20436;-77
2021/09/29 14:38:22;;;;;;;30.90;24.30;;;16.20;99.90;;;;;;5000853;28;20445;-79
2021/09/29 14:40:50;;;;;;;37.00;24.07;;;16.30;99.90;;;;;;4997764;28;20447;-77
2021/09/29 14:43:18;;;;;;;32.40;26.90;;;16.30;99.90;;;;;;4996750;28;20911;-76
2021/09/29 14:45:46;;;;;;;30.50;25.03;;;16.10;99.90;;;;;;4988283;28;20721;-76
2021/09/29 14:48:13;;;;;;;35.50;25.83;;;16.10;99.90;;;;;;4999556;28;20495;-77
2021/09/29 14:50:43;;;;;;;36.20;27.10;;;16.10;99.90;;;;;;4997607;28;20740;-76
2021/09/29 14:53:10;;;;;;;30.70;26.70;;;15.90;99.90;;;;;;4996555;28;20443;-76
2021/09/29 14:55:37;;;;;;;36.88;27.15;;;15.80;99.90;;;;;;4982619;28;20753;-79
2021/09/29 14:58:05;;;;;;;31.15;24.38;;;15.70;99.90;;;;;;4996337;28;20530;-78
2021/09/29 15:00:33;;;;;;;36.65;25.00;;;15.60;99.90;;;;;;4992609;28;20230;-75
2021/09/29 15:03:01;;;;;;;33.58;25.02;;;15.60;99.90;;;;;;4996038;28;20207;-76
2021/09/29 15:05:29;;;;;;;34.78;26.73;;;15.50;99.90;;;;;;4990041;28;20211;-76
2021/09/29 15:07:57;;;;;;;30.83;24.70;;;15.40;99.90;;;;;;4994964;28;20209;-77
2021/09/29 15:10:24;;;;;;;35.38;25.45;;;15.40;99.90;;;;;;4992777;28;20241;-76
2021/09/29 15:12:51;;;;;;;47.63;35.42;;;15.40;99.90;;;;;;5002502;28;20267;-77
2021/09/29 15:20:36;;;;;;;36.75;26.15;;;15.30;99.90;;;;;;5003886;28;20229;-77
2021/09/29 15:30:59;;;;;;;37.90;25.48;;;15.20;99.90;;;;;;4993706;28;20285;-77
2021/09/29 15:47:29;;;;;;;33.03;25.65;;;14.80;99.90;;;;;;5004301;28;20402;-77
2021/09/29 15:52:44;;;;;;;37.92;24.40;;;14.70;99.90;;;;;;5004019;28;20193;-76
2021/09/29 16:00:29;;;;;;;27.85;22.95;;;14.50;99.90;;;;;;5001786;28;20213;-77
2021/09/29 16:32:40;;;;;;;34.75;25.60;;;14.40;99.90;;;;;;5002627;28;20403;-78
2021/09/29 16:35:26;;;;;;;33.35;22.48;;;14.40;99.90;;;;;;4994908;28;20422;-76
2021/09/29 16:37:58;;;;;;;38.92;27.85;;;14.40;99.90;;;;;;4973290;28;20202;-78
2021/09/29 16:40:26;;;;;;;32.45;24.27;;;14.30;99.90;;;;;;4988431;28;20228;-78
2021/09/29 16:42:57;;;;;;;28.83;22.15;;;14.20;99.90;;;;;;5004084;28;20202;-77
2021/09/29 16:45:26;;;;;;;36.65;24.73;;;14.20;99.90;;;;;;5004750;28;20260;-79
2021/09/29 16:47:55;;;;;;;35.00;23.80;;;14.30;99.90;;;;;;5004590;28;20523;-77
2021/09/29 16:50:29;;;;;;;37.53;25.45;;;14.40;99.90;;;;;;5005012;28;20205;-76
2021/09/29 16:52:58;;;;;;;39.53;24.27;;;14.30;99.90;;;;;;5000314;28;20272;-77